Latest Weather Observations for Batchelor

IDD60801

Issued at 3:31 pm CST Saturday 21 January 2017 (issued every 30 minutes, with the page automatically refreshed every 10 minutes)

About weather observations | Map of weather stations | Latest weather observations for NT | Other Formats
Station Details ID: 014272 Name: BATCHELOR AIRPORT Lat: -13.05 Lon: 131.03 Height: 104.0 m
Data from the previous 72 hours. | See also: Recent months at Batchelor
Date/Time
CST
Temp
°C
App
Temp
°C
Dew
Point
°C
Rel
Hum
%
Delta-T
°C
Wind Press
QNH
hPa
Press
MSL
hPa
Rain since
9am
mm
Dir  Spd
km/h
Gust
km/h
Spd
kts
Gust
kts
21/03:00pm 31.8 33.5 21.0 52 7.3 WNW 13 24 7 13 1007.6 1006.9 0.0
21/02:30pm 31.6 32.7 19.6 49 7.9 W 13 22 7 12 1008.0 1007.3 0.0
21/02:00pm 30.9 32.7 21.9 58 6.1 W 15 26 8 14 1008.3 1007.6 0.0
21/01:30pm 30.1 34.1 23.8 69 4.4 W 9 19 5 10 1008.5 1007.8 0.0
21/01:00pm 29.0 33.6 24.1 75 3.4 W 7 17 4 9 1009.1 1008.4 0.0
21/12:30pm 27.4 32.2 24.1 82 2.3 W 6 9 3 5 1009.8 1009.1 0.0
21/12:00pm 26.6 31.3 23.9 85 1.9 W 6 9 3 5 1010.5 1009.8 0.0
21/11:30am 25.8 29.9 23.3 86 1.7 WSW 7 11 4 6 1010.7 1010.0 0.0
21/11:00am 25.3 28.9 23.0 87 1.6 W 9 13 5 7 1011.1 1010.4 0.0
21/10:30am 24.9 29.0 23.3 91 1.1 WNW 7 11 4 6 1011.4 1010.7 0.0
21/10:00am 24.7 29.0 23.3 92 1.0 WNW 6 11 3 6 1011.5 1010.8 0.0
21/09:30am 24.3 29.0 23.4 95 0.6 WNW 4 6 2 3 1011.7 1011.0 0.0
21/09:00am 24.0 28.1 23.0 94 0.7 WNW 6 9 3 5 1011.9 1011.2 5.8
21/08:30am 23.9 28.4 22.9 94 0.7 WNW 4 6 2 3 1011.9 1011.2 5.6
21/08:00am 23.7 27.8 22.9 95 0.5 W 6 9 3 5 1011.5 1010.8 4.8
21/07:30am 23.8 28.5 23.3 97 0.3 WNW 4 7 2 4 1010.8 1010.1 4.4
21/07:00am 24.0 28.1 23.0 94 0.7 WNW 6 9 3 5 1010.5 1009.8 4.2
21/06:30am 24.5 29.2 24.0 97 0.3 W 6 9 3 5 1010.4 1009.7 3.4
21/06:00am 24.8 29.8 24.5 98 0.2 WSW 6 7 3 4 1010.1 1009.4 2.0
21/05:30am 24.7 30.0 24.4 98 0.2 NE 4 6 2 3 1009.4 1008.7 1.4
21/05:00am 24.7 30.3 24.2 97 0.3 NE 2 4 1 2 1008.9 1008.2 1.4
21/04:30am 24.7 30.7 24.2 97 0.3 CALM 0 4 0 2 1008.6 1007.9 1.4
21/04:00am 24.7 30.7 24.2 97 0.3 CALM 0 0 0 0 1008.7 1008.0 1.4
21/03:30am 24.8 30.8 24.3 97 0.3 CALM 0 0 0 0 1008.6 1007.9 1.4
21/03:00am 24.8 30.8 24.3 97 0.3 CALM 0 0 0 0 1008.6 1007.9 1.4
21/02:30am 24.8 30.8 24.3 97 0.3 CALM 0 0 0 0 1008.9 1008.2 1.4
21/02:00am 24.8 30.7 24.1 96 0.5 CALM 0 0 0 0 1009.1 1008.4 1.4
21/01:30am 24.9 30.9 24.2 96 0.5 CALM 0 0 0 0 1009.3 1008.6 1.4
21/01:00am 24.9 30.5 24.2 96 0.5 NE 2 2 1 1 1009.6 1008.9 1.4
21/12:30am 25.0 30.6 24.3 96 0.5 NE 2 4 1 2 1009.8 1009.1 1.4
21/12:00am 24.9 30.1 24.2 96 0.5 NE 4 6 2 3 1010.1 1009.4 1.4
 
Date/Time
CST
Temp
°C
App
Temp
°C
Dew
Point
°C
Rel
Hum
%
Delta-T
°C
Wind Press
QNH
hPa
Press
MSL
hPa
Rain since
9am
mm
Dir  Spd
km/h
Gust
km/h
Spd
kts
Gust
kts
20/11:30pm 24.9 30.1 24.2 96 0.5 W 4 6 2 3 1010.3 1009.6 1.4
20/11:00pm 24.9 30.4 24.0 95 0.6 W 2 4 1 2 1010.2 1009.5 1.4
20/10:30pm 24.9 30.7 24.0 95 0.6 CALM 0 0 0 0 1010.1 1009.4 1.4
20/10:00pm 24.9 30.7 24.0 95 0.6 CALM 0 0 0 0 1009.8 1009.1 1.4
20/09:30pm 24.8 30.2 23.8 94 0.7 W 2 4 1 2 1009.5 1008.8 1.4
20/09:00pm 25.0 30.8 24.0 94 0.7 CALM 0 0 0 0 1009.1 1008.4 1.4
20/08:30pm 25.1 30.8 23.7 92 1.0 CALM 0 0 0 0 1008.8 1008.1 1.4
20/08:00pm 25.1 30.7 23.5 91 1.1 CALM 0 0 0 0 1008.4 1007.7 1.4
20/07:30pm 25.5 30.9 23.2 87 1.6 CALM 0 2 0 1 1008.2 1007.5 1.4
20/07:00pm 25.7 30.2 23.0 85 1.8 W 4 6 2 3 1008.1 1007.4 1.4
20/06:30pm 25.7 30.2 23.0 85 1.8 W 4 7 2 4 1007.9 1007.2 1.4
20/06:00pm 25.8 29.9 22.9 84 2.0 WNW 6 9 3 5 1007.9 1007.2 1.4
20/05:30pm 26.0 29.8 22.7 82 2.2 W 7 13 4 7 1007.8 1007.1 1.0
20/05:00pm 25.8 28.5 22.1 80 2.5 W 11 19 6 10 1007.3 1006.6 1.0
20/04:30pm 25.9 29.1 23.0 84 2.0 W 11 17 6 9 1007.2 1006.5 1.0
20/04:00pm 25.4 29.0 23.1 87 1.6 W 9 17 5 9 1007.2 1006.5 1.0
20/03:30pm 25.3 27.2 22.8 86 1.7 WSW 17 30 9 16 1007.2 1006.5 1.0
20/03:00pm 25.8 29.6 24.0 90 1.2 W 11 17 6 9 1007.7 1007.0 1.0
20/02:30pm 25.3 28.6 23.9 92 1.0 WNW 13 24 7 13 1008.2 1007.5 0.8
20/02:00pm 24.9 27.1 23.3 91 1.1 WNW 17 28 9 15 1008.5 1007.8 0.8
20/01:30pm 25.2 26.0 22.5 85 1.8 WNW 22 33 12 18 1009.0 1008.3 0.4
20/01:00pm 27.5 30.5 23.3 78 2.9 NW 13 22 7 12 1008.7 1008.0 0.4
20/12:30pm 26.3 29.5 23.0 82 2.3 WNW 11 20 6 11 1008.9 1008.2 0.4
20/12:00pm 27.2 30.2 23.4 80 2.6 WNW 13 22 7 12 1009.2 1008.5 0.2
20/11:30am 27.2 30.8 24.3 84 2.0 WNW 13 19 7 10 1009.4 1008.7 0.2
20/11:00am 27.5 30.7 23.7 80 2.6 WNW 13 20 7 11 1009.7 1009.0 0.0
20/10:30am 28.2 32.3 24.6 81 2.5 NW 11 19 6 10 1009.8 1009.1 0.0
20/10:00am 27.1 31.5 24.4 85 1.9 NW 9 15 5 8 1010.1 1009.4 0.0
20/09:30am 25.7 30.6 24.7 94 0.7 NW 7 9 4 5 1010.2 1009.5 0.0
20/09:00am 25.0 30.0 24.5 97 0.3 NNW 6 9 3 5 1009.7 1009.0 31.4
20/08:30am 24.5 29.8 24.3 99 0.1 NW 4 6 2 3 1009.5 1008.8 31.4
20/08:00am 24.2 30.0 24.0 99 0.1 CALM 0 0 0 0 1009.5 1008.8 31.4
20/07:30am 23.9 29.6 23.7 99 0.1 CALM 0 0 0 0 1009.2 1008.5 31.2
20/07:00am 24.0 29.4 23.8 99 0.1 NW 2 6 1 3 1009.0 1008.3 31.0
20/06:30am 23.9 29.6 23.7 99 0.1 CALM 0 0 0 0 1008.9 1008.2 30.8
20/06:00am 24.0 29.7 23.8 99 0.1 CALM 0 0 0 0 1008.8 1008.1 30.6
20/05:30am 23.9 29.6 23.7 99 0.1 CALM 0 0 0 0 1008.5 1007.8 30.2
20/05:00am 23.8 29.4 23.5 98 0.2 CALM 0 0 0 0 1008.1 1007.4 30.0
20/04:30am 23.8 29.4 23.5 98 0.2 CALM 0 0 0 0 1008.2 1007.5 29.8
20/04:00am 23.7 28.4 23.4 98 0.2 WNW 4 6 2 3 1008.1 1007.4 28.8
20/03:30am 23.3 27.0 22.6 96 0.5 NW 7 11 4 6 1007.7 1007.0 28.6
20/03:00am 23.2 25.3 22.5 96 0.5 NW 15 24 8 13 1008.4 1007.7 27.8
20/02:30am 24.0 26.4 23.0 94 0.7 NW 15 32 8 17 1008.7 1008.0 20.6
20/02:00am 24.6 30.1 24.1 97 0.3 N 2 6 1 3 1008.4 1007.7 19.4
20/01:30am 24.7 30.4 23.8 95 0.6 CALM 0 0 0 0 1008.3 1007.6 19.4
20/01:00am 24.7 30.5 24.0 96 0.5 CALM 0 0 0 0 1008.3 1007.6 19.4
20/12:30am 24.6 30.4 23.9 96 0.5 CALM 0 0 0 0 1008.6 1007.9 19.4
20/12:00am 24.5 30.1 23.5 94 0.7 CALM 0 0 0 0 1009.0 1008.3 19.4
 
Date/Time
CST
Temp
°C
App
Temp
°C
Dew
Point
°C
Rel
Hum
%
Delta-T
°C
Wind Press
QNH
hPa
Press
MSL
hPa
Rain since
9am
mm
Dir  Spd
km/h
Gust
km/h
Spd
kts
Gust
kts
19/11:30pm 24.5 29.9 23.3 93 0.8 CALM 0 0 0 0 1009.3 1008.6 19.4
19/11:00pm 24.4 29.8 23.2 93 0.8 CALM 0 0 0 0 1009.3 1008.6 19.4
19/10:30pm 24.4 29.4 23.2 93 0.8 N 2 4 1 2 1009.6 1008.9 19.4
19/10:00pm 24.3 28.8 22.9 92 0.9 N 4 6 2 3 1009.5 1008.8 19.4
19/09:30pm 24.7 28.3 23.7 94 0.7 N 11 17 6 9 1009.4 1008.7 19.4
19/09:00pm 25.5 31.3 24.6 95 0.6 N 2 6 1 3 1009.3 1008.6 19.0
19/08:30pm 25.6 31.1 24.7 95 0.6 N 4 6 2 3 1009.0 1008.3 19.0
19/08:00pm 25.7 31.4 25.0 96 0.5 NNE 4 6 2 3 1008.7 1008.0 19.0
19/07:30pm 25.9 32.5 25.2 96 0.5 CALM 0 0 0 0 1008.6 1007.9 18.6
19/07:00pm 25.9 32.5 25.2 96 0.5 CALM 0 0 0 0 1008.3 1007.6 18.6
19/06:30pm 25.7 31.8 25.0 96 0.5 SW 2 2 1 1 1007.7 1007.0 18.6
19/06:00pm 25.7 32.2 25.0 96 0.5 CALM 0 2 0 1 1007.7 1007.0 18.6
19/05:30pm 25.4 30.9 24.7 96 0.5 NNW 4 4 2 2 1007.4 1006.7 18.6
19/05:00pm 24.8 30.7 24.1 96 0.5 CALM 0 2 0 1 1007.2 1006.5 18.6
19/04:30pm 24.7 28.5 23.5 93 0.8 W 9 17 5 9 1007.3 1006.6 17.2
19/04:00pm 26.1 29.0 23.8 87 1.6 NW 15 26 8 14 1007.5 1006.8 7.8
19/03:30pm 27.1 31.1 23.8 82 2.3 NNE 9 13 5 7 1007.8 1007.1 0.2
19/03:00pm 28.9 33.4 23.6 73 3.7 SE 6 13 3 7 1007.6 1006.9 0.2
19/02:30pm 29.6 33.6 23.1 68 4.5 S 7 13 4 7 1007.9 1007.2 0.2
19/02:00pm 30.9 35.3 23.8 66 4.9 W 7 13 4 7 1008.3 1007.6 0.2
19/01:30pm 30.6 34.8 23.5 66 4.9 W 7 11 4 6 1008.8 1008.1 0.2
19/01:00pm 30.4 34.3 22.6 63 5.3 WSW 6 11 3 6 1009.4 1008.7 0.2
19/12:30pm 30.1 34.3 23.5 67 4.6 WNW 7 11 4 6 1009.8 1009.1 0.2
19/12:00pm 29.4 33.3 22.6 67 4.6 W 6 9 3 5 1010.2 1009.5 0.2
19/11:30am 29.2 33.9 23.9 73 3.7 W 6 11 3 6 1010.6 1009.9 0.2
19/11:00am 28.5 33.2 23.9 76 3.2 WNW 6 11 3 6 1011.0 1010.3 0.2
19/10:30am 27.5 31.6 23.3 78 2.9 WSW 7 13 4 7 1011.0 1010.3 0.0
19/10:00am 26.8 30.5 23.3 81 2.4 W 9 13 5 7 1011.2 1010.5 0.0
19/09:30am 26.0 30.2 23.5 86 1.7 WNW 7 11 4 6 1011.1 1010.4 0.0
19/09:00am 25.5 30.0 23.6 89 1.3 WNW 6 9 3 5 1011.0 1010.3 16.6
19/08:30am 25.1 29.2 23.3 90 1.2 NW 7 11 4 6 1010.7 1010.0 16.6
19/08:00am 24.8 28.7 23.0 90 1.2 NW 7 9 4 5 1010.4 1009.7 16.6
19/07:30am 24.6 28.5 23.0 91 1.1 NW 7 13 4 7 1010.5 1009.8 16.6
19/07:00am 24.1 28.3 23.4 96 0.5 WNW 7 13 4 7 1010.5 1009.8 16.6
19/06:30am 24.1 27.4 23.2 95 0.6 WNW 11 17 6 9 1010.1 1009.4 16.6
19/06:00am 24.1 27.9 23.4 96 0.5 WNW 9 15 5 8 1009.7 1009.0 16.6
19/05:30am 24.1 28.0 23.6 97 0.3 WNW 9 11 5 6 1009.6 1008.9 16.6
19/05:00am 24.2 28.7 23.9 98 0.2 WNW 7 11 4 6 1009.4 1008.7 16.6
19/04:30am 24.0 28.9 23.7 98 0.2 W 4 6 2 3 1009.4 1008.7 16.6
19/04:00am 23.9 28.8 23.6 98 0.2 W 4 6 2 3 1009.5 1008.8 16.6
19/03:30am 24.0 28.8 23.5 97 0.3 W 4 6 2 3 1009.7 1009.0 16.6
19/03:00am 24.0 29.6 23.5 97 0.3 CALM 0 0 0 0 1009.9 1009.2 16.6
19/02:30am 24.1 29.7 23.6 97 0.3 CALM 0 0 0 0 1010.2 1009.5 16.6
19/02:00am 24.1 29.7 23.6 97 0.3 CALM 0 0 0 0 1010.7 1010.0 16.4
19/01:30am 24.1 29.7 23.6 97 0.3 CALM 0 0 0 0 1011.0 1010.3 16.2
19/01:00am 24.0 29.6 23.5 97 0.3 CALM 0 0 0 0 1011.3 1010.6 16.2
19/12:30am 24.1 29.0 23.6 97 0.3 W 4 4 2 2 1011.7 1011.0 16.2
19/12:00am 24.0 29.2 23.5 97 0.3 W 2 4 1 2 1012.0 1011.3 16.2
 
Date/Time
CST
Temp
°C
App
Temp
°C
Dew
Point
°C
Rel
Hum
%
Delta-T
°C
Wind Press
QNH
hPa
Press
MSL
hPa
Rain since
9am
mm
Dir  Spd
km/h
Gust
km/h
Spd
kts
Gust
kts
18/11:30pm 24.0 29.6 23.5 97 0.3 CALM 0 2 0 1 1012.2 1011.5 16.2
18/11:00pm 23.9 28.9 23.2 96 0.5 W 2 4 1 2 1012.5 1011.8 16.2
18/10:30pm 24.1 29.3 23.6 97 0.3 W 2 2 1 1 1012.2 1011.5 16.2
18/10:00pm 23.9 29.3 23.2 96 0.5 CALM 0 0 0 0 1011.9 1011.2 16.0
18/09:30pm 23.7 28.9 22.9 95 0.5 CALM 0 0 0 0 1011.6 1010.9 16.0
18/09:00pm 23.6 28.5 22.4 93 0.8 CALM 0 0 0 0 1011.7 1011.0 16.0
18/08:30pm 23.6 27.4 22.4 93 0.8 W 6 11 3 6 1011.4 1010.7 15.6
18/08:00pm 23.5 26.3 22.3 93 0.8 NW 11 17 6 9 1011.2 1010.5 15.6
18/07:30pm 24.0 25.8 22.6 92 0.9 WNW 17 30 9 16 1011.0 1010.3 15.6
18/07:00pm 24.3 29.4 23.4 95 0.6 N 2 6 1 3 1010.5 1009.8 15.2
18/06:30pm 24.5 28.7 23.5 94 0.7 NW 7 11 4 6 1010.1 1009.4 13.2
18/06:00pm 24.4 27.3 23.2 93 0.8 NW 13 20 7 11 1009.6 1008.9 12.4
18/05:30pm 26.3 32.0 23.8 86 1.7 CALM 0 0 0 0 1009.1 1008.4 8.4
18/05:00pm 26.1 31.3 23.6 86 1.7 WSW 2 6 1 3 1008.5 1007.8 8.4
18/04:30pm 26.6 31.1 23.9 85 1.9 WSW 7 13 4 7 1008.8 1008.1 8.4
18/04:00pm 27.7 33.6 24.1 81 2.5 CALM 0 4 0 2 1008.7 1008.0 8.4

Other Formats:

Comma delimited format used in spreadsheet applications
http://www.bom.gov.au/fwo/IDD60801/IDD60801.94125.axf

JavaScript Object Notation format (JSON) in row-major order
http://www.bom.gov.au/fwo/IDD60801/IDD60801.94125.json